sensor_id;sensor_type;location;lat;lon;timestamp;P1;durP1;ratioP1;P2;durP2;ratioP2
39846;SDS011;25517;52.422;10.782;2022-12-07T00:00:55;45.70;;;24.75;;
39846;SDS011;25517;52.422;10.782;2022-12-07T00:03:33;43.42;;;23.23;;
39846;SDS011;25517;52.422;10.782;2022-12-07T00:05:59;41.67;;;23.20;;
39846;SDS011;25517;52.422;10.782;2022-12-07T00:08:25;43.15;;;23.92;;
39846;SDS011;25517;52.422;10.782;2022-12-07T00:10:51;47.42;;;25.08;;
39846;SDS011;25517;52.422;10.782;2022-12-07T00:13:16;45.83;;;25.25;;
39846;SDS011;25517;52.422;10.782;2022-12-07T00:15:42;46.05;;;22.42;;
39846;SDS011;25517;52.422;10.782;2022-12-07T00:18:08;43.92;;;23.42;;
39846;SDS011;25517;52.422;10.782;2022-12-07T00:20:33;44.70;;;23.25;;
39846;SDS011;25517;52.422;10.782;2022-12-07T00:22:59;41.08;;;23.13;;
39846;SDS011;25517;52.422;10.782;2022-12-07T00:25:24;38.80;;;22.95;;
39846;SDS011;25517;52.422;10.782;2022-12-07T00:27:50;42.45;;;23.50;;
39846;SDS011;25517;52.422;10.782;2022-12-07T00:30:17;39.88;;;23.65;;
39846;SDS011;25517;52.422;10.782;2022-12-07T00:32:42;43.47;;;24.02;;
39846;SDS011;25517;52.422;10.782;2022-12-07T00:35:08;45.80;;;24.33;;
39846;SDS011;25517;52.422;10.782;2022-12-07T00:37:34;44.28;;;24.23;;
39846;SDS011;25517;52.422;10.782;2022-12-07T00:40:00;39.72;;;23.15;;
39846;SDS011;25517;52.422;10.782;2022-12-07T00:42:28;41.15;;;23.50;;
39846;SDS011;25517;52.422;10.782;2022-12-07T00:44:56;44.38;;;24.95;;
39846;SDS011;25517;52.422;10.782;2022-12-07T00:47:25;42.97;;;24.10;;
39846;SDS011;25517;52.422;10.782;2022-12-07T00:49:50;43.92;;;24.10;;
39846;SDS011;25517;52.422;10.782;2022-12-07T00:52:18;43.78;;;24.58;;
39846;SDS011;25517;52.422;10.782;2022-12-07T00:54:44;43.75;;;23.45;;
39846;SDS011;25517;52.422;10.782;2022-12-07T00:57:10;47.65;;;23.70;;
39846;SDS011;25517;52.422;10.782;2022-12-07T00:59:36;42.85;;;25.08;;
39846;SDS011;25517;52.422;10.782;2022-12-07T01:02:02;47.15;;;25.08;;
39846;SDS011;25517;52.422;10.782;2022-12-07T01:04:27;47.80;;;24.83;;
39846;SDS011;25517;52.422;10.782;2022-12-07T01:06:54;46.22;;;24.63;;
39846;SDS011;25517;52.422;10.782;2022-12-07T01:09:20;48.00;;;27.00;;
39846;SDS011;25517;52.422;10.782;2022-12-07T01:11:45;55.47;;;28.00;;
39846;SDS011;25517;52.422;10.782;2022-12-07T01:14:10;51.88;;;27.17;;
39846;SDS011;25517;52.422;10.782;2022-12-07T01:16:38;49.95;;;27.05;;
39846;SDS011;25517;52.422;10.782;2022-12-07T01:19:04;51.08;;;27.17;;
39846;SDS011;25517;52.422;10.782;2022-12-07T01:21:31;60.05;;;28.27;;
39846;SDS011;25517;52.422;10.782;2022-12-07T01:24:04;57.65;;;29.00;;
39846;SDS011;25517;52.422;10.782;2022-12-07T01:26:31;62.50;;;30.40;;
39846;SDS011;25517;52.422;10.782;2022-12-07T01:28:57;67.97;;;30.85;;
39846;SDS011;25517;52.422;10.782;2022-12-07T01:31:27;67.20;;;32.10;;
39846;SDS011;25517;52.422;10.782;2022-12-07T01:33:55;58.08;;;30.45;;
39846;SDS011;25517;52.422;10.782;2022-12-07T01:36:22;64.15;;;31.58;;
39846;SDS011;25517;52.422;10.782;2022-12-07T01:39:12;67.78;;;31.85;;
39846;SDS011;25517;52.422;10.782;2022-12-07T01:41:38;65.38;;;31.95;;
39846;SDS011;25517;52.422;10.782;2022-12-07T01:46:39;74.70;;;33.38;;
39846;SDS011;25517;52.422;10.782;2022-12-07T01:49:06;77.63;;;33.90;;
39846;SDS011;25517;52.422;10.782;2022-12-07T01:51:37;68.53;;;32.70;;
39846;SDS011;25517;52.422;10.782;2022-12-07T01:54:05;81.03;;;33.90;;
39846;SDS011;25517;52.422;10.782;2022-12-07T01:56:31;74.13;;;33.90;;
39846;SDS011;25517;52.422;10.782;2022-12-07T01:58:57;68.18;;;32.67;;
39846;SDS011;25517;52.422;10.782;2022-12-07T02:01:25;62.85;;;30.75;;
39846;SDS011;25517;52.422;10.782;2022-12-07T02:03:50;68.72;;;31.52;;
39846;SDS011;25517;52.422;10.782;2022-12-07T02:06:17;66.85;;;32.97;;
39846;SDS011;25517;52.422;10.782;2022-12-07T02:08:47;74.93;;;34.22;;
39846;SDS011;25517;52.422;10.782;2022-12-07T02:11:13;63.03;;;30.63;;
39846;SDS011;25517;52.422;10.782;2022-12-07T02:13:39;66.93;;;30.77;;
39846;SDS011;25517;52.422;10.782;2022-12-07T02:27:28;64.07;;;32.17;;
39846;SDS011;25517;52.422;10.782;2022-12-07T02:30:19;67.95;;;31.23;;
39846;SDS011;25517;52.422;10.782;2022-12-07T02:35:43;66.85;;;31.65;;
39846;SDS011;25517;52.422;10.782;2022-12-07T02:38:37;77.45;;;35.78;;
39846;SDS011;25517;52.422;10.782;2022-12-07T02:41:10;69.00;;;33.88;;
39846;SDS011;25517;52.422;10.782;2022-12-07T02:43:42;77.05;;;36.58;;
39846;SDS011;25517;52.422;10.782;2022-12-07T02:48:45;72.80;;;34.92;;
39846;SDS011;25517;52.422;10.782;2022-12-07T02:51:12;80.65;;;36.35;;
39846;SDS011;25517;52.422;10.782;2022-12-07T02:53:39;69.38;;;34.53;;
39846;SDS011;25517;52.422;10.782;2022-12-07T02:56:23;82.60;;;34.78;;
39846;SDS011;25517;52.422;10.782;2022-12-07T03:05:00;67.72;;;35.75;;
39846;SDS011;25517;52.422;10.782;2022-12-07T03:10:33;67.65;;;32.83;;
39846;SDS011;25517;52.422;10.782;2022-12-07T03:16:17;65.13;;;32.17;;
39846;SDS011;25517;52.422;10.782;2022-12-07T03:18:56;62.80;;;32.70;;
39846;SDS011;25517;52.422;10.782;2022-12-07T03:21:26;68.22;;;30.92;;
39846;SDS011;25517;52.422;10.782;2022-12-07T03:23:56;60.65;;;30.35;;
39846;SDS011;25517;52.422;10.782;2022-12-07T03:26:29;60.42;;;30.15;;
39846;SDS011;25517;52.422;10.782;2022-12-07T03:29:01;65.32;;;32.42;;
39846;SDS011;25517;52.422;10.782;2022-12-07T03:31:33;67.25;;;34.38;;
39846;SDS011;25517;52.422;10.782;2022-12-07T03:36:50;61.60;;;31.17;;
39846;SDS011;25517;52.422;10.782;2022-12-07T03:40:03;59.95;;;29.83;;
39846;SDS011;25517;52.422;10.782;2022-12-07T03:42:20;56.47;;;28.63;;
39846;SDS011;25517;52.422;10.782;2022-12-07T03:44:47;48.53;;;27.73;;
39846;SDS011;25517;52.422;10.782;2022-12-07T03:47:20;53.25;;;27.75;;
39846;SDS011;25517;52.422;10.782;2022-12-07T03:50:10;54.65;;;26.67;;
39846;SDS011;25517;52.422;10.782;2022-12-07T03:52:59;45.58;;;23.83;;
39846;SDS011;25517;52.422;10.782;2022-12-07T03:55:34;50.28;;;24.02;;
39846;SDS011;25517;52.422;10.782;2022-12-07T03:58:04;48.45;;;23.08;;
39846;SDS011;25517;52.422;10.782;2022-12-07T04:00:34;39.67;;;20.95;;
39846;SDS011;25517;52.422;10.782;2022-12-07T04:03:00;40.60;;;21.30;;
39846;SDS011;25517;52.422;10.782;2022-12-07T04:05:28;35.42;;;20.60;;
39846;SDS011;25517;52.422;10.782;2022-12-07T04:07:54;38.60;;;20.83;;
39846;SDS011;25517;52.422;10.782;2022-12-07T04:10:20;35.20;;;19.17;;
39846;SDS011;25517;52.422;10.782;2022-12-07T04:12:48;35.88;;;19.65;;
39846;SDS011;25517;52.422;10.782;2022-12-07T04:15:14;36.78;;;18.85;;
39846;SDS011;25517;52.422;10.782;2022-12-07T04:17:40;33.38;;;18.23;;
39846;SDS011;25517;52.422;10.782;2022-12-07T04:20:06;36.92;;;18.00;;
39846;SDS011;25517;52.422;10.782;2022-12-07T04:22:33;34.88;;;17.75;;
39846;SDS011;25517;52.422;10.782;2022-12-07T04:24:59;35.70;;;17.88;;
39846;SDS011;25517;52.422;10.782;2022-12-07T04:27:24;39.90;;;16.45;;
39846;SDS011;25517;52.422;10.782;2022-12-07T04:29:50;36.40;;;16.00;;
39846;SDS011;25517;52.422;10.782;2022-12-07T04:32:15;31.88;;;16.92;;
39846;SDS011;25517;52.422;10.782;2022-12-07T04:34:41;25.98;;;15.43;;
39846;SDS011;25517;52.422;10.782;2022-12-07T04:37:07;28.63;;;14.43;;
39846;SDS011;25517;52.422;10.782;2022-12-07T04:39:33;25.13;;;13.60;;
39846;SDS011;25517;52.422;10.782;2022-12-07T04:41:59;33.22;;;16.10;;
39846;SDS011;25517;52.422;10.782;2022-12-07T04:44:26;27.08;;;13.95;;
39846;SDS011;25517;52.422;10.782;2022-12-07T04:46:53;29.13;;;13.55;;
39846;SDS011;25517;52.422;10.782;2022-12-07T04:49:19;23.20;;;13.85;;
39846;SDS011;25517;52.422;10.782;2022-12-07T04:51:46;28.02;;;15.48;;
39846;SDS011;25517;52.422;10.782;2022-12-07T04:54:12;27.67;;;15.65;;
39846;SDS011;25517;52.422;10.782;2022-12-07T04:56:38;26.35;;;13.85;;
39846;SDS011;25517;52.422;10.782;2022-12-07T04:59:05;32.90;;;15.68;;
39846;SDS011;25517;52.422;10.782;2022-12-07T05:01:31;28.75;;;14.05;;
39846;SDS011;25517;52.422;10.782;2022-12-07T05:03:57;28.80;;;13.82;;
39846;SDS011;25517;52.422;10.782;2022-12-07T05:06:23;29.10;;;12.60;;
39846;SDS011;25517;52.422;10.782;2022-12-07T05:08:49;27.38;;;12.50;;
39846;SDS011;25517;52.422;10.782;2022-12-07T05:11:14;21.95;;;12.00;;
39846;SDS011;25517;52.422;10.782;2022-12-07T05:13:59;27.05;;;11.52;;
39846;SDS011;25517;52.422;10.782;2022-12-07T05:16:24;23.20;;;10.27;;
39846;SDS011;25517;52.422;10.782;2022-12-07T05:18:50;26.90;;;12.07;;
39846;SDS011;25517;52.422;10.782;2022-12-07T05:21:16;21.95;;;10.88;;
39846;SDS011;25517;52.422;10.782;2022-12-07T05:23:42;19.88;;;10.75;;
39846;SDS011;25517;52.422;10.782;2022-12-07T05:26:08;21.13;;;10.70;;
39846;SDS011;25517;52.422;10.782;2022-12-07T05:28:33;23.30;;;11.55;;
39846;SDS011;25517;52.422;10.782;2022-12-07T05:30:59;20.15;;;11.63;;
39846;SDS011;25517;52.422;10.782;2022-12-07T05:33:25;21.13;;;11.27;;
39846;SDS011;25517;52.422;10.782;2022-12-07T05:35:50;22.70;;;11.85;;
39846;SDS011;25517;52.422;10.782;2022-12-07T05:38:16;19.73;;;11.32;;
39846;SDS011;25517;52.422;10.782;2022-12-07T05:40:42;19.50;;;10.90;;
39846;SDS011;25517;52.422;10.782;2022-12-07T05:43:07;19.08;;;11.38;;
39846;SDS011;25517;52.422;10.782;2022-12-07T05:45:33;27.30;;;11.68;;
39846;SDS011;25517;52.422;10.782;2022-12-07T05:47:59;19.58;;;11.55;;
39846;SDS011;25517;52.422;10.782;2022-12-07T05:50:24;23.10;;;12.35;;
39846;SDS011;25517;52.422;10.782;2022-12-07T05:52:50;23.33;;;11.13;;
39846;SDS011;25517;52.422;10.782;2022-12-07T05:55:16;29.05;;;12.18;;
39846;SDS011;25517;52.422;10.782;2022-12-07T05:57:42;25.40;;;11.00;;
39846;SDS011;25517;52.422;10.782;2022-12-07T06:00:30;27.33;;;11.32;;
39846;SDS011;25517;52.422;10.782;2022-12-07T06:02:56;23.02;;;11.80;;
39846;SDS011;25517;52.422;10.782;2022-12-07T06:05:22;23.17;;;11.70;;
39846;SDS011;25517;52.422;10.782;2022-12-07T06:07:48;19.60;;;11.63;;
39846;SDS011;25517;52.422;10.782;2022-12-07T06:10:14;20.55;;;12.65;;
39846;SDS011;25517;52.422;10.782;2022-12-07T06:12:40;21.17;;;11.10;;
39846;SDS011;25517;52.422;10.782;2022-12-07T06:15:08;18.80;;;11.93;;
39846;SDS011;25517;52.422;10.782;2022-12-07T06:17:34;27.30;;;12.90;;
39846;SDS011;25517;52.422;10.782;2022-12-07T06:20:00;25.40;;;12.45;;
39846;SDS011;25517;52.422;10.782;2022-12-07T06:22:26;21.95;;;11.07;;
39846;SDS011;25517;52.422;10.782;2022-12-07T06:24:52;19.50;;;11.18;;
39846;SDS011;25517;52.422;10.782;2022-12-07T06:27:18;25.20;;;12.32;;
39846;SDS011;25517;52.422;10.782;2022-12-07T06:29:44;26.98;;;11.88;;
39846;SDS011;25517;52.422;10.782;2022-12-07T06:32:09;20.98;;;12.00;;
39846;SDS011;25517;52.422;10.782;2022-12-07T06:34:36;28.17;;;12.05;;
39846;SDS011;25517;52.422;10.782;2022-12-07T06:37:01;21.23;;;11.68;;
39846;SDS011;25517;52.422;10.782;2022-12-07T06:39:28;30.13;;;12.85;;
39846;SDS011;25517;52.422;10.782;2022-12-07T06:41:55;20.08;;;11.13;;
39846;SDS011;25517;52.422;10.782;2022-12-07T06:44:21;23.98;;;12.43;;
39846;SDS011;25517;52.422;10.782;2022-12-07T06:46:48;21.80;;;12.20;;
39846;SDS011;25517;52.422;10.782;2022-12-07T06:49:15;20.90;;;11.50;;
39846;SDS011;25517;52.422;10.782;2022-12-07T06:51:41;18.33;;;11.90;;
39846;SDS011;25517;52.422;10.782;2022-12-07T06:54:08;43.08;;;10.82;;
39846;SDS011;25517;52.422;10.782;2022-12-07T06:56:34;20.10;;;10.70;;
39846;SDS011;25517;52.422;10.782;2022-12-07T06:59:00;23.83;;;10.60;;
39846;SDS011;25517;52.422;10.782;2022-12-07T07:01:27;22.63;;;10.65;;
39846;SDS011;25517;52.422;10.782;2022-12-07T07:03:53;18.83;;;10.52;;
39846;SDS011;25517;52.422;10.782;2022-12-07T07:06:18;17.98;;;10.70;;
39846;SDS011;25517;52.422;10.782;2022-12-07T07:08:44;21.50;;;11.27;;
39846;SDS011;25517;52.422;10.782;2022-12-07T07:11:10;18.25;;;10.23;;
39846;SDS011;25517;52.422;10.782;2022-12-07T07:13:36;22.75;;;9.77;;
39846;SDS011;25517;52.422;10.782;2022-12-07T07:16:02;18.58;;;10.02;;
39846;SDS011;25517;52.422;10.782;2022-12-07T07:18:28;14.63;;;9.75;;
39846;SDS011;25517;52.422;10.782;2022-12-07T07:20:54;17.63;;;9.15;;
39846;SDS011;25517;52.422;10.782;2022-12-07T07:23:20;14.85;;;8.80;;
39846;SDS011;25517;52.422;10.782;2022-12-07T07:25:46;15.43;;;8.90;;
39846;SDS011;25517;52.422;10.782;2022-12-07T07:28:12;15.32;;;7.95;;
39846;SDS011;25517;52.422;10.782;2022-12-07T07:30:37;17.35;;;8.48;;
39846;SDS011;25517;52.422;10.782;2022-12-07T07:33:04;19.02;;;9.07;;
39846;SDS011;25517;52.422;10.782;2022-12-07T07:35:31;19.48;;;8.82;;
39846;SDS011;25517;52.422;10.782;2022-12-07T07:37:58;15.75;;;8.50;;
39846;SDS011;25517;52.422;10.782;2022-12-07T07:40:24;16.67;;;8.30;;
39846;SDS011;25517;52.422;10.782;2022-12-07T07:42:51;17.08;;;9.68;;
39846;SDS011;25517;52.422;10.782;2022-12-07T07:45:18;14.23;;;8.85;;
39846;SDS011;25517;52.422;10.782;2022-12-07T07:47:45;16.77;;;8.35;;
39846;SDS011;25517;52.422;10.782;2022-12-07T07:50:11;14.57;;;7.75;;
39846;SDS011;25517;52.422;10.782;2022-12-07T07:52:37;17.88;;;8.43;;
39846;SDS011;25517;52.422;10.782;2022-12-07T07:55:03;16.45;;;8.75;;
39846;SDS011;25517;52.422;10.782;2022-12-07T07:57:28;13.73;;;8.52;;
39846;SDS011;25517;52.422;10.782;2022-12-07T07:59:54;13.95;;;7.82;;
39846;SDS011;25517;52.422;10.782;2022-12-07T08:02:20;15.95;;;8.32;;
39846;SDS011;25517;52.422;10.782;2022-12-07T08:04:46;17.27;;;8.90;;
39846;SDS011;25517;52.422;10.782;2022-12-07T08:07:14;11.00;;;7.60;;
39846;SDS011;25517;52.422;10.782;2022-12-07T08:09:40;15.32;;;8.48;;
39846;SDS011;25517;52.422;10.782;2022-12-07T08:12:06;12.85;;;7.28;;
39846;SDS011;25517;52.422;10.782;2022-12-07T08:14:32;13.27;;;8.10;;
39846;SDS011;25517;52.422;10.782;2022-12-07T08:16:59;14.65;;;8.50;;
39846;SDS011;25517;52.422;10.782;2022-12-07T08:19:24;12.60;;;8.30;;
39846;SDS011;25517;52.422;10.782;2022-12-07T08:21:50;12.38;;;7.97;;
39846;SDS011;25517;52.422;10.782;2022-12-07T08:24:16;17.50;;;9.02;;
39846;SDS011;25517;52.422;10.782;2022-12-07T08:26:41;20.40;;;10.15;;
39846;SDS011;25517;52.422;10.782;2022-12-07T08:29:07;13.77;;;9.00;;
39846;SDS011;25517;52.422;10.782;2022-12-07T08:31:33;16.55;;;10.00;;
39846;SDS011;25517;52.422;10.782;2022-12-07T08:33:59;14.40;;;8.82;;
39846;SDS011;25517;52.422;10.782;2022-12-07T08:36:24;20.25;;;9.75;;
39846;SDS011;25517;52.422;10.782;2022-12-07T08:38:50;24.92;;;10.15;;
39846;SDS011;25517;52.422;10.782;2022-12-07T08:41:15;16.75;;;9.38;;
39846;SDS011;25517;52.422;10.782;2022-12-07T08:43:41;19.17;;;9.02;;
39846;SDS011;25517;52.422;10.782;2022-12-07T08:46:12;14.85;;;9.23;;
39846;SDS011;25517;52.422;10.782;2022-12-07T08:48:48;15.88;;;8.75;;
39846;SDS011;25517;52.422;10.782;2022-12-07T08:51:18;16.92;;;8.25;;
39846;SDS011;25517;52.422;10.782;2022-12-07T08:53:45;14.65;;;8.65;;
39846;SDS011;25517;52.422;10.782;2022-12-07T08:56:11;14.77;;;8.27;;
39846;SDS011;25517;52.422;10.782;2022-12-07T08:58:37;15.82;;;7.85;;
39846;SDS011;25517;52.422;10.782;2022-12-07T09:01:03;13.70;;;7.88;;
39846;SDS011;25517;52.422;10.782;2022-12-07T09:03:29;16.30;;;8.45;;
39846;SDS011;25517;52.422;10.782;2022-12-07T09:05:55;13.73;;;7.72;;
39846;SDS011;25517;52.422;10.782;2022-12-07T09:08:22;18.48;;;9.00;;
39846;SDS011;25517;52.422;10.782;2022-12-07T09:10:54;11.55;;;7.93;;
39846;SDS011;25517;52.422;10.782;2022-12-07T09:13:19;13.88;;;7.55;;
39846;SDS011;25517;52.422;10.782;2022-12-07T09:15:45;14.25;;;8.27;;
39846;SDS011;25517;52.422;10.782;2022-12-07T09:18:10;15.13;;;7.45;;
39846;SDS011;25517;52.422;10.782;2022-12-07T09:20:36;15.88;;;8.23;;
39846;SDS011;25517;52.422;10.782;2022-12-07T09:23:01;11.50;;;7.20;;
39846;SDS011;25517;52.422;10.782;2022-12-07T09:25:27;10.73;;;6.85;;
39846;SDS011;25517;52.422;10.782;2022-12-07T09:27:56;10.80;;;7.15;;
39846;SDS011;25517;52.422;10.782;2022-12-07T09:30:22;14.25;;;7.95;;
39846;SDS011;25517;52.422;10.782;2022-12-07T09:32:48;13.73;;;7.65;;
39846;SDS011;25517;52.422;10.782;2022-12-07T09:35:14;12.23;;;7.68;;
39846;SDS011;25517;52.422;10.782;2022-12-07T09:37:39;13.85;;;7.57;;
39846;SDS011;25517;52.422;10.782;2022-12-07T09:40:05;13.90;;;7.68;;
39846;SDS011;25517;52.422;10.782;2022-12-07T09:42:35;15.40;;;7.10;;
39846;SDS011;25517;52.422;10.782;2022-12-07T09:45:04;13.30;;;7.07;;
39846;SDS011;25517;52.422;10.782;2022-12-07T09:47:32;12.55;;;7.53;;
39846;SDS011;25517;52.422;10.782;2022-12-07T09:50:00;13.02;;;7.45;;
39846;SDS011;25517;52.422;10.782;2022-12-07T09:52:29;14.45;;;6.90;;
39846;SDS011;25517;52.422;10.782;2022-12-07T09:54:55;10.60;;;5.95;;
39846;SDS011;25517;52.422;10.782;2022-12-07T09:57:25;11.60;;;5.25;;
39846;SDS011;25517;52.422;10.782;2022-12-07T09:59:54;7.50;;;5.57;;
39846;SDS011;25517;52.422;10.782;2022-12-07T10:05:10;8.05;;;4.60;;
39846;SDS011;25517;52.422;10.782;2022-12-07T10:07:43;7.20;;;4.38;;
39846;SDS011;25517;52.422;10.782;2022-12-07T10:10:13;8.15;;;4.75;;
39846;SDS011;25517;52.422;10.782;2022-12-07T10:13:04;8.23;;;4.10;;
39846;SDS011;25517;52.422;10.782;2022-12-07T10:15:50;7.47;;;3.83;;
39846;SDS011;25517;52.422;10.782;2022-12-07T10:21:14;7.05;;;4.70;;
39846;SDS011;25517;52.422;10.782;2022-12-07T10:26:50;9.45;;;4.63;;
39846;SDS011;25517;52.422;10.782;2022-12-07T10:29:19;13.23;;;5.35;;
39846;SDS011;25517;52.422;10.782;2022-12-07T10:32:02;6.93;;;4.70;;
39846;SDS011;25517;52.422;10.782;2022-12-07T10:34:35;11.73;;;5.15;;
39846;SDS011;25517;52.422;10.782;2022-12-07T10:39:46;8.70;;;5.20;;
39846;SDS011;25517;52.422;10.782;2022-12-07T10:42:25;11.00;;;5.85;;
39846;SDS011;25517;52.422;10.782;2022-12-07T10:45:18;8.68;;;5.53;;
39846;SDS011;25517;52.422;10.782;2022-12-07T10:50:56;10.88;;;5.28;;
39846;SDS011;25517;52.422;10.782;2022-12-07T10:53:53;12.35;;;5.00;;
39846;SDS011;25517;52.422;10.782;2022-12-07T10:56:29;10.82;;;4.95;;
39846;SDS011;25517;52.422;10.782;2022-12-07T11:02:23;14.82;;;4.82;;
39846;SDS011;25517;52.422;10.782;2022-12-07T11:05:14;13.40;;;4.45;;
39846;SDS011;25517;52.422;10.782;2022-12-07T11:19:26;9.95;;;3.55;;
39846;SDS011;25517;52.422;10.782;2022-12-07T11:22:13;5.65;;;3.08;;
39846;SDS011;25517;52.422;10.782;2022-12-07T11:30:48;12.15;;;4.28;;
39846;SDS011;25517;52.422;10.782;2022-12-07T11:33:17;6.80;;;3.15;;
39846;SDS011;25517;52.422;10.782;2022-12-07T11:38:35;7.90;;;3.22;;
39846;SDS011;25517;52.422;10.782;2022-12-07T11:41:08;3.95;;;2.40;;
39846;SDS011;25517;52.422;10.782;2022-12-07T11:43:50;7.22;;;2.70;;
39846;SDS011;25517;52.422;10.782;2022-12-07T11:46:28;5.90;;;2.70;;
39846;SDS011;25517;52.422;10.782;2022-12-07T11:49:10;8.90;;;2.67;;
39846;SDS011;25517;52.422;10.782;2022-12-07T11:51:40;6.95;;;2.05;;
39846;SDS011;25517;52.422;10.782;2022-12-07T11:54:12;7.55;;;2.60;;
39846;SDS011;25517;52.422;10.782;2022-12-07T11:56:42;15.80;;;8.45;;
39846;SDS011;25517;52.422;10.782;2022-12-07T11:59:16;8.43;;;2.80;;
39846;SDS011;25517;52.422;10.782;2022-12-07T12:02:03;11.05;;;4.55;;
39846;SDS011;25517;52.422;10.782;2022-12-07T12:04:47;5.35;;;2.38;;
39846;SDS011;25517;52.422;10.782;2022-12-07T12:07:21;9.65;;;2.28;;
39846;SDS011;25517;52.422;10.782;2022-12-07T12:09:49;8.13;;;2.83;;
39846;SDS011;25517;52.422;10.782;2022-12-07T12:15:40;10.25;;;2.47;;
39846;SDS011;25517;52.422;10.782;2022-12-07T12:18:39;9.40;;;3.08;;
39846;SDS011;25517;52.422;10.782;2022-12-07T12:23:44;12.63;;;2.45;;
39846;SDS011;25517;52.422;10.782;2022-12-07T12:26:15;9.55;;;2.47;;
39846;SDS011;25517;52.422;10.782;2022-12-07T12:28:50;6.03;;;2.45;;
39846;SDS011;25517;52.422;10.782;2022-12-07T12:33:59;7.75;;;2.50;;
39846;SDS011;25517;52.422;10.782;2022-12-07T12:36:28;5.65;;;2.40;;
39846;SDS011;25517;52.422;10.782;2022-12-07T12:46:46;9.65;;;2.72;;
39846;SDS011;25517;52.422;10.782;2022-12-07T12:51:53;4.97;;;2.60;;
39846;SDS011;25517;52.422;10.782;2022-12-07T12:54:24;9.23;;;2.50;;
39846;SDS011;25517;52.422;10.782;2022-12-07T12:56:58;5.07;;;2.80;;
39846;SDS011;25517;52.422;10.782;2022-12-07T13:05:16;5.20;;;2.47;;
39846;SDS011;25517;52.422;10.782;2022-12-07T13:13:01;5.53;;;2.30;;
39846;SDS011;25517;52.422;10.782;2022-12-07T13:18:37;8.60;;;2.28;;
39846;SDS011;25517;52.422;10.782;2022-12-07T13:28:50;7.55;;;2.30;;
39846;SDS011;25517;52.422;10.782;2022-12-07T13:31:23;6.53;;;2.15;;
39846;SDS011;25517;52.422;10.782;2022-12-07T13:34:02;7.50;;;2.63;;
39846;SDS011;25517;52.422;10.782;2022-12-07T13:36:31;8.15;;;2.67;;
39846;SDS011;25517;52.422;10.782;2022-12-07T13:39:10;4.75;;;2.25;;
39846;SDS011;25517;52.422;10.782;2022-12-07T13:41:43;6.43;;;2.25;;
39846;SDS011;25517;52.422;10.782;2022-12-07T13:44:10;6.07;;;1.77;;
39846;SDS011;25517;52.422;10.782;2022-12-07T13:46:55;9.00;;;2.08;;
39846;SDS011;25517;52.422;10.782;2022-12-07T13:49:48;3.23;;;1.70;;
39846;SDS011;25517;52.422;10.782;2022-12-07T13:52:22;4.35;;;1.77;;
39846;SDS011;25517;52.422;10.782;2022-12-07T13:54:58;4.97;;;1.80;;
39846;SDS011;25517;52.422;10.782;2022-12-07T13:57:38;9.23;;;2.00;;
39846;SDS011;25517;52.422;10.782;2022-12-07T14:03:03;3.60;;;1.80;;
39846;SDS011;25517;52.422;10.782;2022-12-07T14:05:40;5.28;;;1.92;;
39846;SDS011;25517;52.422;10.782;2022-12-07T14:13:22;3.88;;;2.17;;
39846;SDS011;25517;52.422;10.782;2022-12-07T14:15:59;5.90;;;2.40;;
39846;SDS011;25517;52.422;10.782;2022-12-07T14:18:26;9.32;;;2.72;;
39846;SDS011;25517;52.422;10.782;2022-12-07T14:21:13;5.60;;;2.35;;
39846;SDS011;25517;52.422;10.782;2022-12-07T14:24:02;10.70;;;3.58;;
39846;SDS011;25517;52.422;10.782;2022-12-07T14:26:34;7.78;;;2.33;;
39846;SDS011;25517;52.422;10.782;2022-12-07T14:29:18;7.15;;;2.30;;
39846;SDS011;25517;52.422;10.782;2022-12-07T14:31:54;7.00;;;2.47;;
39846;SDS011;25517;52.422;10.782;2022-12-07T14:34:21;5.35;;;2.38;;
39846;SDS011;25517;52.422;10.782;2022-12-07T14:36:48;9.13;;;2.53;;
39846;SDS011;25517;52.422;10.782;2022-12-07T14:39:14;9.63;;;2.65;;
39846;SDS011;25517;52.422;10.782;2022-12-07T14:41:39;8.23;;;4.00;;
39846;SDS011;25517;52.422;10.782;2022-12-07T14:44:18;6.68;;;2.67;;
39846;SDS011;25517;52.422;10.782;2022-12-07T14:46:45;4.32;;;2.35;;
39846;SDS011;25517;52.422;10.782;2022-12-07T14:49:12;2.72;;;1.30;;
39846;SDS011;25517;52.422;10.782;2022-12-07T14:51:38;5.05;;;1.60;;
39846;SDS011;25517;52.422;10.782;2022-12-07T14:54:05;32.40;;;12.50;;
39846;SDS011;25517;52.422;10.782;2022-12-07T14:56:34;21.95;;;9.13;;
39846;SDS011;25517;52.422;10.782;2022-12-07T14:59:00;7.55;;;2.10;;
39846;SDS011;25517;52.422;10.782;2022-12-07T15:01:25;1.85;;;1.20;;
39846;SDS011;25517;52.422;10.782;2022-12-07T15:03:51;7.43;;;1.90;;
39846;SDS011;25517;52.422;10.782;2022-12-07T15:06:17;2.38;;;1.55;;
39846;SDS011;25517;52.422;10.782;2022-12-07T15:08:43;6.80;;;2.05;;
39846;SDS011;25517;52.422;10.782;2022-12-07T15:11:16;6.65;;;1.90;;
39846;SDS011;25517;52.422;10.782;2022-12-07T15:13:42;5.25;;;2.30;;
39846;SDS011;25517;52.422;10.782;2022-12-07T15:16:27;6.00;;;1.90;;
39846;SDS011;25517;52.422;10.782;2022-12-07T15:18:53;10.10;;;3.90;;
39846;SDS011;25517;52.422;10.782;2022-12-07T15:21:18;7.03;;;3.42;;
39846;SDS011;25517;52.422;10.782;2022-12-07T15:23:45;9.48;;;2.92;;
39846;SDS011;25517;52.422;10.782;2022-12-07T15:26:15;12.63;;;2.38;;
39846;SDS011;25517;52.422;10.782;2022-12-07T15:28:41;5.15;;;1.95;;
39846;SDS011;25517;52.422;10.782;2022-12-07T15:31:11;7.22;;;2.40;;
39846;SDS011;25517;52.422;10.782;2022-12-07T15:33:41;8.35;;;2.40;;
39846;SDS011;25517;52.422;10.782;2022-12-07T15:36:07;6.05;;;3.20;;
39846;SDS011;25517;52.422;10.782;2022-12-07T15:38:32;8.98;;;3.05;;
39846;SDS011;25517;52.422;10.782;2022-12-07T15:40:58;9.57;;;2.78;;
39846;SDS011;25517;52.422;10.782;2022-12-07T15:43:24;7.20;;;2.90;;
39846;SDS011;25517;52.422;10.782;2022-12-07T15:46:08;7.75;;;2.63;;
39846;SDS011;25517;52.422;10.782;2022-12-07T15:48:34;8.65;;;3.05;;
39846;SDS011;25517;52.422;10.782;2022-12-07T15:51:06;5.72;;;3.13;;
39846;SDS011;25517;52.422;10.782;2022-12-07T15:53:33;6.47;;;3.20;;
39846;SDS011;25517;52.422;10.782;2022-12-07T15:56:00;5.03;;;3.13;;
39846;SDS011;25517;52.422;10.782;2022-12-07T15:58:26;6.05;;;3.25;;
39846;SDS011;25517;52.422;10.782;2022-12-07T16:00:52;11.13;;;2.60;;
39846;SDS011;25517;52.422;10.782;2022-12-07T16:03:18;5.13;;;2.47;;
39846;SDS011;25517;52.422;10.782;2022-12-07T16:05:50;6.80;;;2.17;;
39846;SDS011;25517;52.422;10.782;2022-12-07T16:08:17;4.75;;;2.03;;
39846;SDS011;25517;52.422;10.782;2022-12-07T16:10:42;5.60;;;2.20;;
39846;SDS011;25517;52.422;10.782;2022-12-07T16:13:11;6.03;;;2.15;;
39846;SDS011;25517;52.422;10.782;2022-12-07T16:15:42;8.07;;;2.72;;
39846;SDS011;25517;52.422;10.782;2022-12-07T16:18:07;8.35;;;2.35;;
39846;SDS011;25517;52.422;10.782;2022-12-07T16:20:33;4.32;;;2.30;;
39846;SDS011;25517;52.422;10.782;2022-12-07T16:23:00;5.68;;;2.70;;
39846;SDS011;25517;52.422;10.782;2022-12-07T16:25:26;8.00;;;4.00;;
39846;SDS011;25517;52.422;10.782;2022-12-07T16:27:52;6.22;;;3.35;;
39846;SDS011;25517;52.422;10.782;2022-12-07T16:30:18;5.70;;;3.13;;
39846;SDS011;25517;52.422;10.782;2022-12-07T16:32:44;9.18;;;3.70;;